Time;durP1;ratioP1;P1;durP2;ratioP2;P2;SDS_P1;SDS_P2;PMS_P1;PMS_P2;Temp;Humidity;BMP_temperature;BMP_pressure;BME280_temperature;BME280_humidity;BME280_pressure;Samples;Min_cycle;Max_cycle;Signal;HPM_P1;HPM_P2
2022/11/07 00:02:15;;;;;;;7.47;3.77;;;;;;;9.24;100.00;98719.78;5015816;28;20191;-79
2022/11/07 00:04:43;;;;;;;6.03;3.90;;;;;;;9.17;100.00;98740.47;5007693;28;20202;-79
2022/11/07 00:07:11;;;;;;;6.93;4.27;;;;;;;9.17;100.00;98737.00;5011075;28;20198;-80
2022/11/07 00:09:42;;;;;;;5.60;3.93;;;;;;;9.28;100.00;98746.88;5016139;28;20195;-80
2022/11/07 00:12:10;;;;;;;4.80;3.70;;;;;;;9.22;100.00;98739.31;5008727;28;20229;-80
2022/11/07 00:14:38;;;;;;;4.60;3.53;;;;;;;9.26;100.00;98738.16;5008333;28;20225;-80
2022/11/07 00:17:08;;;;;;;4.43;3.60;;;;;;;9.30;100.00;98735.22;5010465;28;20276;-79
2022/11/07 00:19:36;;;;;;;5.20;3.67;;;;;;;9.25;100.00;98724.09;5013352;28;20221;-80
2022/11/07 00:22:05;;;;;;;4.10;3.07;;;;;;;9.36;100.00;98736.59;5012164;28;20205;-79
2022/11/07 00:24:35;;;;;;;5.27;3.17;;;;;;;9.39;100.00;98736.44;5013214;28;20191;-80
2022/11/07 00:27:04;;;;;;;5.43;3.73;;;;;;;9.41;100.00;98737.16;5015570;28;20276;-80
2022/11/07 00:29:33;;;;;;;4.00;3.23;;;;;;;9.44;100.00;98740.44;5015933;28;20202;-80
2022/11/07 00:32:01;;;;;;;4.83;3.30;;;;;;;9.40;100.00;98736.31;5011488;28;20202;-80
2022/11/07 00:34:29;;;;;;;7.10;3.43;;;;;;;9.38;100.00;98737.38;4956221;28;20248;-80
2022/11/07 00:36:57;;;;;;;4.73;3.03;;;;;;;9.37;100.00;98744.47;4951300;29;20219;-80
2022/11/07 00:39:27;;;;;;;4.30;3.20;;;;;;;9.42;100.00;98742.34;4948252;29;20200;-80
2022/11/07 00:41:55;;;;;;;7.60;3.57;;;;;;;9.38;100.00;98740.88;4949114;28;20687;-80
2022/11/07 00:44:25;;;;;;;5.93;3.53;;;;;;;9.42;100.00;98744.16;4952610;29;20195;-80
2022/11/07 00:46:53;;;;;;;4.73;3.57;;;;;;;9.35;100.00;98748.97;4951321;29;20220;-80
2022/11/07 00:49:22;;;;;;;4.43;3.70;;;;;;;9.40;100.00;98753.97;4949938;29;20204;-80
2022/11/07 00:51:51;;;;;;;6.33;3.53;;;;;;;9.39;100.00;98747.00;4962654;28;20229;-80
2022/11/07 00:54:19;;;;;;;3.63;3.23;;;;;;;9.29;100.00;98753.84;5015564;28;20657;-80
2022/11/07 00:56:48;;;;;;;4.73;3.20;;;;;;;9.40;100.00;98756.63;5006616;28;20222;-80
2022/11/07 00:59:16;;;;;;;5.50;3.70;;;;;;;9.28;100.00;98760.06;5011177;28;20202;-80
2022/11/07 01:01:46;;;;;;;6.77;3.43;;;;;;;9.16;100.00;98756.41;5012606;28;20193;-79
2022/11/07 01:07:01;;;;;;;4.23;3.60;;;;;;;9.05;100.00;98764.19;5014864;28;20269;-80
2022/11/07 01:09:30;;;;;;;5.07;3.40;;;;;;;9.17;100.00;98769.53;5007312;28;20210;-80
2022/11/07 01:11:58;;;;;;;5.23;3.70;;;;;;;9.12;100.00;98773.41;5008517;28;20202;-80
2022/11/07 01:14:27;;;;;;;5.07;3.40;;;;;;;9.24;100.00;98771.78;5007212;28;20206;-80
2022/11/07 01:16:57;;;;;;;5.17;3.53;;;;;;;9.16;100.00;98774.91;5022150;28;20218;-80
2022/11/07 01:19:27;;;;;;;5.50;3.50;;;;;;;9.22;100.00;98779.81;5018111;28;20262;-80
2022/11/07 01:21:55;;;;;;;4.97;3.20;;;;;;;9.20;100.00;98788.78;5014708;28;20191;-80
2022/11/07 01:24:24;;;;;;;6.90;3.37;;;;;;;9.44;100.00;98797.75;4954635;29;20620;-80
2022/11/07 01:26:52;;;;;;;5.80;3.23;;;;;;;9.35;100.00;98790.41;4948569;28;20228;-80
2022/11/07 01:29:21;;;;;;;7.77;3.50;;;;;;;9.30;100.00;98781.97;4951834;29;20238;-80
2022/11/07 01:31:49;;;;;;;5.23;3.33;;;;;;;9.23;100.00;98792.06;4948151;29;20228;-80
2022/11/07 01:34:19;;;;;;;4.93;3.50;;;;;;;9.29;100.00;98789.03;4950319;29;20660;-79
2022/11/07 01:36:48;;;;;;;5.53;3.40;;;;;;;9.25;100.00;98782.25;4948630;29;20211;-79
2022/11/07 01:39:17;;;;;;;6.00;3.17;;;;;;;9.24;100.00;98785.84;4949563;29;20240;-80
2022/11/07 01:41:46;;;;;;;5.30;3.20;;;;;;;9.35;100.00;98803.63;4955569;28;20284;-80
2022/11/07 01:45:00;;;;;;;4.23;3.33;;;;;;;9.23;100.00;98792.06;5011235;28;20198;-80
2022/11/07 01:47:33;;;;;;;6.70;3.30;;;;;;;9.33;100.00;98800.25;4998868;28;20236;-79
2022/11/07 01:50:06;;;;;;;7.00;3.53;;;;;;;9.28;100.00;98803.19;5014295;28;20194;-79
2022/11/07 01:52:36;;;;;;;7.73;3.70;;;;;;;9.36;100.00;98800.91;4971113;28;20252;-80
2022/11/07 01:55:12;;;;;;;4.53;3.40;;;;;;;9.41;100.00;98801.44;4970747;28;20200;-80
2022/11/07 01:57:45;;;;;;;7.30;3.73;;;;;;;9.37;100.00;98796.47;4971742;28;20192;-80
2022/11/07 02:00:17;;;;;;;5.13;3.27;;;;;;;9.43;100.00;98794.25;4971330;28;20257;-79
2022/11/07 02:02:48;;;;;;;7.00;3.53;;;;;;;9.49;100.00;98793.03;4969579;28;20203;-79
2022/11/07 02:05:26;;;;;;;8.23;3.63;;;;;;;9.42;100.00;98786.44;4970024;28;20239;-80
2022/11/07 02:07:57;;;;;;;5.20;3.80;;;;;;;9.29;100.00;98786.41;4952652;28;20243;-79
2022/11/07 02:10:29;;;;;;;5.40;4.30;;;;;;;9.27;100.00;98782.16;4966647;28;20299;-79
2022/11/07 02:12:59;;;;;;;5.40;3.90;;;;;;;9.29;100.00;98778.47;4971477;28;20203;-79
2022/11/07 02:15:27;;;;;;;8.43;4.27;;;;;;;9.38;100.00;98790.25;4972916;28;20200;-79
2022/11/07 02:17:56;;;;;;;6.63;4.23;;;;;;;9.23;100.00;98786.78;5004537;28;20241;-79
2022/11/07 02:20:26;;;;;;;6.57;4.07;;;;;;;9.14;100.00;98780.28;4950616;28;20191;-80
2022/11/07 02:22:57;;;;;;;5.63;4.03;;;;;;;9.26;100.00;98780.44;5013927;28;20202;-80
2022/11/07 02:25:31;;;;;;;6.90;4.47;;;;;;;9.10;100.00;98796.44;5011001;28;20649;-80
2022/11/07 02:28:03;;;;;;;6.70;3.80;;;;;;;9.02;100.00;98789.00;5010817;28;20241;-80
2022/11/07 02:30:33;;;;;;;11.03;4.50;;;;;;;9.07;100.00;98794.84;5013737;28;20272;-80
2022/11/07 02:33:02;;;;;;;5.83;3.60;;;;;;;9.09;100.00;98798.25;5005635;28;20202;-80
2022/11/07 02:35:38;;;;;;;5.90;4.43;;;;;;;9.13;100.00;98806.81;5011008;28;20571;-80
2022/11/07 02:38:09;;;;;;;8.90;4.17;;;;;;;9.17;100.00;98801.25;5013806;28;20190;-80
2022/11/07 02:40:39;;;;;;;10.50;4.27;;;;;;;9.18;100.00;98795.03;5009414;28;20225;-80
2022/11/07 02:43:11;;;;;;;8.70;4.20;;;;;;;9.00;100.00;98800.63;5009885;28;20202;-80
2022/11/07 02:45:44;;;;;;;7.63;4.50;;;;;;;9.11;100.00;98804.28;5010068;28;20202;-80
2022/11/07 02:48:15;;;;;;;7.27;4.80;;;;;;;9.01;100.00;98808.44;5008444;28;20700;-80
2022/11/07 02:50:44;;;;;;;7.63;4.10;;;;;;;9.09;100.00;98806.16;5010739;28;20222;-80
2022/11/07 02:53:12;;;;;;;6.47;4.53;;;;;;;9.04;100.00;98800.31;5013655;28;20194;-80
2022/11/07 02:55:43;;;;;;;11.83;5.13;;;;;;;9.12;100.00;98805.13;5006550;28;20249;-80
2022/11/07 02:58:11;;;;;;;7.33;5.07;;;;;;;9.14;100.00;98804.06;5007169;28;20202;-80
2022/11/07 03:00:39;;;;;;;8.43;5.30;;;;;;;9.27;100.00;98817.38;5009369;28;20225;-80
2022/11/07 03:03:07;;;;;;;6.67;4.90;;;;;;;9.29;100.00;98815.47;5012103;28;20202;-80
2022/11/07 03:05:36;;;;;;;9.30;5.30;;;;;;;9.21;100.00;98808.97;5009613;28;20205;-80
2022/11/07 03:08:05;;;;;;;7.60;5.60;;;;;;;9.10;100.00;98810.50;5009691;28;20755;-80
2022/11/07 03:10:33;;;;;;;10.70;5.13;;;;;;;9.08;100.00;98808.91;5017871;28;20240;-80
2022/11/07 03:13:03;;;;;;;8.13;4.90;;;;;;;9.09;100.00;98811.44;5015869;28;20195;-80
2022/11/07 03:15:31;;;;;;;10.23;5.83;;;;;;;9.01;100.00;98823.44;5011247;28;20198;-80
2022/11/07 03:17:59;;;;;;;8.07;5.40;;;;;;;8.96;100.00;98833.44;5008468;28;20194;-80
2022/11/07 03:20:28;;;;;;;7.67;5.50;;;;;;;9.08;100.00;98841.47;5011463;28;20560;-80
2022/11/07 03:22:56;;;;;;;8.13;5.40;;;;;;;9.04;100.00;98839.09;5010727;28;20206;-80
2022/11/07 03:25:25;;;;;;;11.00;5.73;;;;;;;9.08;100.00;98846.75;4956692;29;20192;-80
2022/11/07 03:27:54;;;;;;;10.20;6.50;;;;;;;9.22;100.00;98850.31;4957055;28;20216;-80
2022/11/07 03:30:24;;;;;;;8.90;5.87;;;;;;;9.01;100.00;98847.22;4952624;29;20196;-80
2022/11/07 03:32:53;;;;;;;9.57;6.27;;;;;;;9.00;100.00;98842.88;4956810;29;20233;-80
2022/11/07 03:35:21;;;;;;;9.77;6.13;;;;;;;9.15;100.00;98845.38;4956729;29;20200;-80
2022/11/07 03:37:50;;;;;;;8.67;5.33;;;;;;;9.17;100.00;98846.16;4958194;28;20200;-80
2022/11/07 03:40:18;;;;;;;9.20;5.90;;;;;;;9.00;100.00;98845.53;4954403;29;20200;-80
2022/11/07 03:42:48;;;;;;;15.20;6.03;;;;;;;9.02;100.00;98856.84;4936157;28;20233;-80
2022/11/07 03:45:17;;;;;;;10.97;6.43;;;;;;;9.14;100.00;98854.28;5014140;28;20696;-80
2022/11/07 03:47:47;;;;;;;15.37;7.00;;;;;;;9.02;100.00;98851.56;5015549;28;20242;-79
2022/11/07 03:50:18;;;;;;;11.87;6.93;;;;;;;9.16;100.00;98848.88;5012198;28;20233;-79
2022/11/07 03:52:47;;;;;;;14.33;7.23;;;;;;;9.09;100.00;98843.16;5007944;28;20223;-79
2022/11/07 03:55:17;;;;;;;12.17;7.33;;;;;;;8.97;100.00;98846.53;4979712;28;20201;-80
2022/11/07 03:57:46;;;;;;;13.27;7.03;;;;;;;8.97;100.00;98849.19;5011261;28;20203;-80
2022/11/07 04:00:16;;;;;;;15.10;7.10;;;;;;;8.89;100.00;98843.56;5015256;28;20190;-79
2022/11/07 04:02:45;;;;;;;12.73;7.47;;;;;;;8.94;100.00;98856.47;5009662;28;20230;-80
2022/11/07 04:05:16;;;;;;;17.20;7.60;;;;;;;8.94;100.00;98854.66;5008765;28;20202;-80
2022/11/07 04:07:44;;;;;;;12.30;7.40;;;;;;;8.89;100.00;98860.25;5010091;28;20728;-80
2022/11/07 04:10:13;;;;;;;13.60;7.40;;;;;;;9.15;100.00;98865.69;5012303;28;20191;-80
2022/11/07 04:18:12;;;;;;;11.23;6.73;;;;;;;9.08;100.00;98881.09;5014698;28;20221;-80
2022/11/07 04:20:42;;;;;;;9.50;6.00;;;;;;;9.16;100.00;98870.88;5010380;28;20198;-80
2022/11/07 04:23:11;;;;;;;8.40;6.63;;;;;;;9.08;100.00;98881.09;5015005;28;20256;-80
2022/11/07 04:28:27;;;;;;;11.37;6.60;;;;;;;9.21;100.00;98875.03;5014735;28;20268;-80
2022/11/07 04:30:55;;;;;;;7.77;6.13;;;;;;;9.30;100.00;98871.81;5007127;28;20198;-79
2022/11/07 04:33:24;;;;;;;9.50;6.63;;;;;;;9.12;100.00;98879.09;5005764;28;20221;-80
2022/11/07 04:36:01;;;;;;;10.33;6.77;;;;;;;9.14;100.00;98885.97;5011209;28;20194;-80
2022/11/07 04:38:30;;;;;;;14.30;6.63;;;;;;;9.27;100.00;98879.94;4945112;28;20294;-80
2022/11/07 04:40:59;;;;;;;11.30;6.80;;;;;;;9.28;100.00;98879.00;4934835;29;20197;-80
2022/11/07 04:43:30;;;;;;;11.23;6.70;;;;;;;9.20;100.00;98875.97;4934888;29;20704;-80
2022/11/07 04:46:02;;;;;;;9.10;6.70;;;;;;;9.26;100.00;98883.50;4935022;29;20197;-80
2022/11/07 04:48:31;;;;;;;11.00;6.80;;;;;;;9.36;100.00;98887.25;4914459;29;20224;-80
2022/11/07 04:53:17;;;;;;;11.43;7.20;;;;;;;9.31;100.00;98882.28;5097592;27;20536;-79
2022/11/07 04:55:48;;;;;;;13.60;8.23;;;;;;;9.37;100.00;98884.53;5091689;28;20234;-79
2022/11/07 04:58:16;;;;;;;16.53;8.77;;;;;;;9.42;100.00;98887.72;5093702;28;20244;-79
2022/11/07 05:00:46;;;;;;;13.97;8.07;;;;;;;9.36;100.00;98881.97;5090633;28;20665;-79
2022/11/07 05:03:14;;;;;;;12.80;8.20;;;;;;;9.43;100.00;98886.78;5088839;28;20227;-79
2022/11/07 05:05:43;;;;;;;11.20;7.43;;;;;;;9.47;100.00;98892.75;5089641;28;20191;-79
2022/11/07 05:08:12;;;;;;;14.37;8.70;;;;;;;9.45;100.00;98891.97;5091258;28;20223;-79
2022/11/07 05:10:42;;;;;;;12.93;8.43;;;;;;;9.66;100.00;98895.91;5090181;28;20646;-80
2022/11/07 05:13:10;;;;;;;11.00;7.27;;;;;;;9.57;100.00;98890.34;5089799;28;20731;-80
2022/11/07 05:15:38;;;;;;;15.07;10.20;;;;;;;9.69;100.00;98890.41;5089974;28;20192;-79
2022/11/07 05:18:09;;;;;;;14.73;9.30;;;;;;;9.55;100.00;98903.66;5088966;28;20195;-80
2022/11/07 05:20:39;;;;;;;16.20;9.73;;;;;;;9.77;100.00;98904.94;5090386;28;20197;-79
2022/11/07 05:23:13;;;;;;;12.93;8.57;;;;;;;9.79;100.00;98900.38;5091031;28;20230;-80
2022/11/07 05:25:46;;;;;;;14.63;9.67;;;;;;;9.85;100.00;98903.50;5087317;28;20278;-79
2022/11/07 05:28:18;;;;;;;12.70;9.17;;;;;;;9.87;100.00;98914.81;5089572;28;20234;-79
2022/11/07 05:30:58;;;;;;;11.40;9.37;;;;;;;9.75;100.00;98905.88;5088275;28;20215;-79
2022/11/07 05:33:27;;;;;;;17.47;8.93;;;;;;;9.81;100.00;98903.78;5092645;27;20224;-79
2022/11/07 05:35:56;;;;;;;12.50;8.73;;;;;;;9.73;100.00;98899.81;5089905;28;20199;-79
2022/11/07 05:38:27;;;;;;;15.80;11.13;;;;;;;9.86;100.00;98897.25;5088067;28;20195;-80
2022/11/07 05:40:57;;;;;;;16.90;11.07;;;;;;;9.92;100.00;98895.97;5089685;28;20222;-80
2022/11/07 05:43:25;;;;;;;21.83;12.77;;;;;;;9.97;100.00;98905.31;5053314;28;20228;-79
2022/11/07 05:45:59;;;;;;;15.27;10.00;;;;;;;9.98;100.00;98900.88;5025242;28;20194;-79
2022/11/07 05:48:29;;;;;;;18.60;11.40;;;;;;;9.89;100.00;98904.97;5086976;28;20195;-79
2022/11/07 05:50:57;;;;;;;16.07;10.93;;;;;;;10.01;100.00;98900.66;5089089;28;20195;-79
2022/11/07 05:53:29;;;;;;;14.07;9.40;;;;;;;9.94;100.00;98905.53;5051609;28;20261;-79
2022/11/07 05:56:00;;;;;;;16.07;9.43;;;;;;;10.07;100.00;98907.38;5090747;28;20192;-79
2022/11/07 05:58:29;;;;;;;13.10;9.17;;;;;;;10.00;100.00;98907.75;5091635;28;20245;-80
2022/11/07 06:01:02;;;;;;;11.30;8.10;;;;;;;9.96;100.00;98916.00;5092890;28;20195;-79
2022/11/07 06:03:31;;;;;;;13.30;8.90;;;;;;;10.03;100.00;98910.19;5083213;28;20196;-80
2022/11/07 06:06:00;;;;;;;12.47;8.67;;;;;;;9.94;100.00;98913.47;5075729;28;20185;-79
2022/11/07 06:08:28;;;;;;;10.97;8.17;;;;;;;9.96;100.00;98916.00;5077003;28;20242;-80
2022/11/07 06:10:57;;;;;;;11.07;7.73;;;;;;;10.08;100.00;98919.66;5075262;28;20200;-79
2022/11/07 06:13:27;;;;;;;9.93;7.27;;;;;;;10.08;100.00;98915.19;5039198;28;20212;-80
2022/11/07 06:15:58;;;;;;;12.47;7.57;;;;;;;10.09;100.00;98914.25;5076275;28;20609;-79
2022/11/07 06:18:27;;;;;;;11.50;7.33;;;;;;;10.09;100.00;98918.69;5079423;28;20196;-79
2022/11/07 06:20:55;;;;;;;12.00;7.33;;;;;;;10.14;100.00;98917.47;5075121;28;20208;-79
2022/11/07 06:23:24;;;;;;;14.33;8.63;;;;;;;10.08;100.00;98914.34;5080944;27;20208;-79
2022/11/07 06:25:55;;;;;;;13.60;8.70;;;;;;;10.12;100.00;98918.47;5075641;28;20195;-79
2022/11/07 06:28:23;;;;;;;12.70;7.57;;;;;;;10.14;100.00;98925.41;5075254;28;20192;-79
2022/11/07 06:30:53;;;;;;;13.57;8.70;;;;;;;10.17;100.00;98927.84;5078845;28;20215;-79
2022/11/07 06:33:24;;;;;;;15.50;8.13;;;;;;;10.20;100.00;98922.31;5072747;28;20303;-79
2022/11/07 06:35:54;;;;;;;9.60;7.40;;;;;;;10.14;100.00;98912.16;5076031;28;20188;-79
2022/11/07 06:38:23;;;;;;;13.37;7.47;;;;;;;10.19;100.00;98928.56;5075829;28;20319;-80
2022/11/07 06:40:52;;;;;;;11.90;7.80;;;;;;;10.15;100.00;98928.88;5070844;28;20197;-79
2022/11/07 06:43:21;;;;;;;11.27;7.00;;;;;;;10.18;100.00;98926.88;5077222;28;20196;-80
2022/11/07 06:45:49;;;;;;;10.70;6.33;;;;;;;10.24;100.00;98928.31;5074739;28;20361;-79
2022/11/07 06:48:19;;;;;;;12.43;7.50;;;;;;;10.21;100.00;98928.47;5070863;28;20655;-79
2022/11/07 06:50:47;;;;;;;14.87;7.70;;;;;;;10.18;100.00;98934.81;5077520;28;20204;-80
2022/11/07 06:53:19;;;;;;;11.73;7.03;;;;;;;10.24;100.00;98936.25;5039844;28;20216;-79
2022/11/07 06:55:48;;;;;;;8.53;6.23;;;;;;;10.22;100.00;98936.34;5073509;28;20278;-80
2022/11/07 06:58:16;;;;;;;12.40;6.67;;;;;;;10.31;100.00;98946.31;5072401;28;20199;-79
2022/11/07 07:00:45;;;;;;;12.30;6.73;;;;;;;10.24;100.00;98945.03;5064735;28;20720;-79
2022/11/07 07:03:14;;;;;;;9.20;6.00;;;;;;;10.38;100.00;98943.28;5070191;28;20665;-80
2022/11/07 07:05:44;;;;;;;8.23;6.33;;;;;;;10.23;100.00;98946.00;5063287;28;20219;-79
2022/11/07 07:08:13;;;;;;;10.03;6.30;;;;;;;10.27;100.00;98955.41;5067194;28;20189;-79
2022/11/07 07:10:45;;;;;;;9.27;6.33;;;;;;;10.36;100.00;98964.56;5070147;28;20378;-79
2022/11/07 07:13:14;;;;;;;9.77;5.97;;;;;;;10.40;100.00;98966.03;5069287;28;20220;-79
2022/11/07 07:15:52;;;;;;;8.93;6.10;;;;;;;10.37;100.00;98960.94;5071880;28;20193;-79
2022/11/07 07:18:22;;;;;;;7.50;5.93;;;;;;;10.42;100.00;98957.97;5073878;28;20236;-80
2022/11/07 07:20:54;;;;;;;11.30;5.67;;;;;;;10.42;100.00;98963.28;5077793;28;20189;-80
2022/11/07 07:23:22;;;;;;;8.53;5.40;;;;;;;10.39;100.00;98955.56;5074123;28;20199;-79
2022/11/07 07:25:51;;;;;;;7.83;5.10;;;;;;;10.48;100.00;98950.50;5074274;28;20193;-80
2022/11/07 07:28:20;;;;;;;10.87;5.70;;;;;;;10.51;100.00;98960.88;5012356;28;20226;-79
2022/11/07 07:30:48;;;;;;;15.07;6.13;;;;;;;10.60;100.00;98968.19;5005743;28;20348;-79
2022/11/07 07:33:19;;;;;;;10.97;5.83;;;;;;;10.59;100.00;98968.31;5001022;28;20225;-79
2022/11/07 07:35:47;;;;;;;10.43;6.73;;;;;;;10.59;100.00;98961.22;5005622;28;20202;-80
2022/11/07 07:38:18;;;;;;;14.97;6.40;;;;;;;10.53;100.00;98953.69;5012221;28;20206;-80
2022/11/07 07:40:46;;;;;;;13.00;7.23;;;;;;;10.67;100.00;98968.63;5012263;28;20245;-80
2022/11/07 07:43:14;;;;;;;12.77;7.27;;;;;;;10.65;100.00;98964.41;5010958;28;20233;-79
2022/11/07 07:45:43;;;;;;;14.47;7.70;;;;;;;10.77;100.00;98947.69;5012070;28;20281;-80
2022/11/07 07:48:17;;;;;;;14.97;7.17;;;;;;;10.86;100.00;98953.19;5007087;28;20260;-79
2022/11/07 07:50:47;;;;;;;14.17;7.03;;;;;;;10.79;100.00;98943.97;5011845;28;20228;-80
2022/11/07 07:53:18;;;;;;;9.63;6.43;;;;;;;10.86;100.00;98955.84;5049508;28;20216;-80
2022/11/07 07:55:46;;;;;;;12.83;6.67;;;;;;;10.91;100.00;98952.06;5072661;28;20216;-80
2022/11/07 07:58:15;;;;;;;13.00;6.83;;;;;;;11.05;100.00;98959.88;5078224;28;20201;-80
2022/11/07 08:00:43;;;;;;;13.70;6.93;;;;;;;11.06;100.00;98954.47;5073109;28;20224;-79
2022/11/07 08:03:13;;;;;;;14.43;6.80;;;;;;;11.11;100.00;98943.56;5070300;28;20219;-79
2022/11/07 08:05:42;;;;;;;13.33;6.90;;;;;;;11.15;100.00;98953.00;5073247;28;20216;-79
2022/11/07 08:08:10;;;;;;;12.97;6.50;;;;;;;11.13;100.00;98953.09;5070420;28;20651;-79
2022/11/07 08:10:40;;;;;;;11.00;5.60;;;;;;;11.12;100.00;98953.22;5078497;28;20230;-79
2022/11/07 08:13:10;;;;;;;11.77;5.70;;;;;;;11.15;100.00;98951.19;5073089;28;20220;-79
2022/11/07 08:15:38;;;;;;;17.93;6.03;;;;;;;11.20;100.00;98950.03;5074493;28;20249;-80
2022/11/07 08:18:07;;;;;;;11.57;5.30;;;;;;;11.16;100.00;98947.56;5074923;28;20192;-79
2022/11/07 08:20:35;;;;;;;7.03;5.17;;;;;;;11.15;100.00;98943.22;5050180;28;20250;-80
2022/11/07 08:23:05;;;;;;;10.43;4.87;;;;;;;11.24;100.00;98952.34;5051019;28;20193;-79
2022/11/07 08:25:41;;;;;;;13.53;5.00;;;;;;;11.30;100.00;98936.03;5049272;28;20196;-80
2022/11/07 08:28:10;;;;;;;12.73;5.20;;;;;;;11.31;100.00;98937.72;5051216;28;20281;-79
2022/11/07 08:30:38;;;;;;;10.50;5.70;;;;;;;11.25;100.00;98942.59;5045183;28;20197;-80
2022/11/07 08:33:08;;;;;;;10.13;5.27;;;;;;;11.31;100.00;98942.16;5047389;28;20221;-80
2022/11/07 08:35:36;;;;;;;11.00;4.87;;;;;;;11.34;100.00;98939.28;5043723;28;20301;-79
2022/11/07 08:38:10;;;;;;;12.43;4.57;;;;;;;11.39;100.00;98950.44;5045403;28;20307;-79
2022/11/07 08:40:38;;;;;;;11.30;4.30;;;;;;;11.47;100.00;98951.56;5049985;28;20301;-80
2022/11/07 08:43:08;;;;;;;13.53;4.00;;;;;;;11.51;100.00;98949.56;5076912;28;20254;-79
2022/11/07 08:45:36;;;;;;;9.97;3.97;;;;;;;11.52;100.00;98945.09;5076874;28;20208;-80
2022/11/07 08:48:05;;;;;;;6.20;3.40;;;;;;;11.63;100.00;98951.31;5075736;28;20193;-79
2022/11/07 08:50:33;;;;;;;6.43;3.13;;;;;;;11.57;100.00;98943.78;5072759;28;20230;-79
2022/11/07 08:53:02;;;;;;;6.30;2.83;;;;;;;11.66;100.00;98944.94;5072752;28;20279;-80
2022/11/07 08:55:30;;;;;;;8.87;3.17;;;;;;;11.70;100.00;98951.75;5077679;28;20219;-79
2022/11/07 08:58:01;;;;;;;7.90;3.47;;;;;;;11.67;100.00;98947.47;5076719;28;20237;-80
2022/11/07 09:00:33;;;;;;;8.70;3.40;;;;;;;11.75;100.00;98942.47;5072782;28;20222;-79
2022/11/07 09:03:02;;;;;;;8.47;3.63;;;;;;;11.82;100.00;98944.72;5070499;28;20204;-79
2022/11/07 09:05:51;;;;;;;8.73;3.60;;;;;;;11.82;100.00;98945.56;5072610;28;20206;-79
2022/11/07 09:08:19;;;;;;;5.77;3.10;;;;;;;11.68;100.00;98943.91;5075246;28;20701;-79
2022/11/07 09:10:47;;;;;;;8.43;3.30;;;;;;;11.75;100.00;98941.63;5069792;28;20200;-79
2022/11/07 09:13:16;;;;;;;7.27;2.70;;;;;;;11.75;100.00;98945.13;5074791;28;20188;-79
2022/11/07 09:15:46;;;;;;;10.97;3.10;;;;;;;11.92;100.00;98927.19;5074019;28;20203;-79
2022/11/07 09:18:19;;;;;;;9.23;3.13;;;;;;;11.81;100.00;98924.47;5068727;28;20235;-79
2022/11/07 09:20:47;;;;;;;8.63;3.10;;;;;;;12.02;100.00;98931.69;5075549;28;20201;-79
2022/11/07 09:23:16;;;;;;;8.17;3.37;;;;;;;12.08;100.00;98935.72;5077650;28;20192;-79
2022/11/07 09:25:45;;;;;;;10.63;3.23;;;;;;;12.22;100.00;98932.88;5073633;28;20212;-80
2022/11/07 09:28:14;;;;;;;9.23;2.97;;;;;;;12.25;100.00;98937.09;5074186;28;20196;-79
2022/11/07 09:30:43;;;;;;;8.57;2.87;;;;;;;12.16;100.00;98933.34;5076101;28;20238;-79
2022/11/07 09:33:13;;;;;;;6.57;2.63;;;;;;;12.24;100.00;98930.94;5071152;28;20246;-79
2022/11/07 09:35:42;;;;;;;7.03;2.30;;;;;;;12.30;100.00;98932.31;5072168;28;20205;-80
2022/11/07 09:38:10;;;;;;;10.13;2.77;;;;;;;12.33;100.00;98930.25;5071703;28;20185;-80
2022/11/07 09:40:47;;;;;;;8.97;2.63;;;;;;;12.43;100.00;98922.44;5075972;28;20249;-80
2022/11/07 09:43:30;;;;;;;9.10;2.47;;;;;;;12.15;100.00;98922.81;5079956;28;20199;-80
2022/11/07 09:46:07;;;;;;;7.33;2.63;;;;;;;12.40;100.00;98935.97;5078960;28;20196;-80
2022/11/07 09:48:44;;;;;;;8.03;2.47;;;;;;;12.52;100.00;98932.38;5078572;28;20186;-80
2022/11/07 09:51:27;;;;;;;8.20;2.30;;;;;;;12.52;100.00;98928.88;5077654;28;20736;-79
2022/11/07 09:54:01;;;;;;;8.20;2.10;;;;;;;12.48;100.00;98935.41;5077578;28;20212;-80
2022/11/07 09:56:33;;;;;;;6.57;2.33;;;;;;;12.30;100.00;98941.13;5079398;28;20221;-79
2022/11/07 09:59:07;;;;;;;6.77;2.47;;;;;;;12.32;100.00;98931.22;5075445;28;20201;-79
2022/11/07 10:01:41;;;;;;;5.90;2.30;;;;;;;12.31;100.00;98936.66;5075446;28;20188;-79
2022/11/07 10:04:16;;;;;;;7.43;2.60;;;;;;;12.28;100.00;98932.44;5075256;28;20192;-79
2022/11/07 10:06:56;;;;;;;9.80;2.37;;;;;;;12.30;100.00;98935.81;5084197;28;20264;-80
2022/11/07 10:09:40;;;;;;;7.57;2.60;;;;;;;12.47;100.00;98942.53;5082227;28;20276;-79
2022/11/07 10:12:21;;;;;;;8.47;2.30;;;;;;;12.48;100.00;98941.56;5078192;28;20204;-79
2022/11/07 10:15:00;;;;;;;10.43;2.90;;;;;;;12.54;100.00;98942.88;5074270;28;20223;-79
2022/11/07 10:17:40;;;;;;;10.70;2.77;;;;;;;12.55;100.00;98945.44;5068330;28;20204;-79
2022/11/07 10:20:23;;;;;;;6.97;2.43;;;;;;;12.47;100.00;98947.00;5075519;28;20204;-80
2022/11/07 10:23:13;;;;;;;9.67;3.13;;;;;;;12.44;100.00;98948.03;5078494;27;20188;-79
2022/11/07 10:25:49;;;;;;;9.23;2.50;;;;;;;12.51;100.00;98954.59;5075563;28;20231;-79
2022/11/07 10:28:19;;;;;;;10.53;2.90;;;;;;;12.50;100.00;98954.72;5078301;28;20193;-79
2022/11/07 10:30:49;;;;;;;6.87;2.30;;;;;;;12.58;100.00;98944.38;5073140;28;20292;-79
2022/11/07 10:33:37;;;;;;;7.67;2.90;;;;;;;12.65;100.00;98945.59;5075231;28;20200;-79
2022/11/07 10:36:16;;;;;;;11.90;2.97;;;;;;;12.80;100.00;98949.72;5073866;28;20216;-79
2022/11/07 10:38:45;;;;;;;7.93;2.50;;;;;;;12.83;100.00;98938.84;5075316;28;20192;-79
2022/11/07 10:41:18;;;;;;;7.90;2.20;;;;;;;12.85;100.00;98934.28;5074430;28;20204;-80
2022/11/07 10:43:51;;;;;;;7.10;2.33;;;;;;;12.88;100.00;98942.03;5015686;28;20201;-79
2022/11/07 10:46:24;;;;;;;4.73;2.37;;;;;;;12.94;100.00;98943.38;5006304;28;20260;-79
2022/11/07 10:48:55;;;;;;;5.67;2.13;;;;;;;12.93;100.00;98946.13;5016010;28;20206;-79
2022/11/07 10:51:35;;;;;;;8.87;2.70;;;;;;;12.97;100.00;98953.75;5011509;28;20268;-79
2022/11/07 10:54:04;;;;;;;6.47;2.33;;;;;;;12.84;100.00;98937.91;5012935;28;20194;-79
2022/11/07 10:56:44;;;;;;;4.73;2.30;;;;;;;12.90;100.00;98932.09;5013648;28;20230;-79
2022/11/07 10:59:14;;;;;;;6.77;2.40;;;;;;;12.88;100.00;98931.38;5011826;28;20218;-80
2022/11/07 11:01:50;;;;;;;7.47;2.30;;;;;;;12.81;100.00;98929.31;5035539;28;20242;-80
2022/11/07 11:04:23;;;;;;;8.97;2.20;;;;;;;12.87;100.00;98944.81;5076998;28;20200;-80
2022/11/07 11:07:04;;;;;;;10.10;2.23;;;;;;;12.79;100.00;98933.91;5077575;28;20242;-80
2022/11/07 11:09:35;;;;;;;12.37;6.03;;;;;;;12.85;100.00;98938.75;5075847;28;20238;-80
2022/11/07 11:12:12;;;;;;;8.67;2.83;;;;;;;12.99;100.00;98930.56;5074217;28;20203;-80
2022/11/07 11:14:42;;;;;;;6.80;2.10;;;;;;;13.02;100.00;98942.75;5073390;28;20212;-80
2022/11/07 11:17:24;;;;;;;7.37;2.10;;;;;;;13.07;100.00;98935.28;5070649;28;20646;-80
2022/11/07 11:19:53;;;;;;;4.67;1.90;;;;;;;13.09;100.00;98941.31;5076634;28;20202;-80
2022/11/07 11:22:25;;;;;;;8.77;2.77;;;;;;;13.08;100.00;98940.47;5073081;28;20188;-80
2022/11/07 11:25:03;;;;;;;8.47;2.33;;;;;;;13.02;100.00;98930.31;5076263;28;20192;-80
2022/11/07 11:27:38;;;;;;;6.70;2.10;;;;;;;13.26;100.00;98932.91;5074388;28;20188;-80
2022/11/07 11:30:11;;;;;;;6.33;2.47;;;;;;;12.98;100.00;98943.97;5079568;27;20189;-80
2022/11/07 11:32:45;;;;;;;5.17;2.17;;;;;;;13.21;100.00;98926.25;5076510;28;20200;-81
2022/11/07 11:35:24;;;;;;;12.03;2.27;;;;;;;13.15;100.00;98923.09;5076924;28;20694;-80
2022/11/07 11:38:00;;;;;;;6.27;2.40;;;;;;;13.25;100.00;98922.41;5076556;28;20215;-80
2022/11/07 11:40:36;;;;;;;6.23;2.10;;;;;;;13.13;100.00;98919.72;5077151;28;20700;-81
2022/11/07 11:43:17;;;;;;;7.57;1.90;;;;;;;13.14;100.00;98921.41;5073876;28;20188;-80
2022/11/07 11:46:00;;;;;;;5.40;2.10;;;;;;;13.14;100.00;98916.06;5076306;28;20203;-80
2022/11/07 11:48:34;;;;;;;5.60;1.43;;;;;;;13.14;100.00;98915.22;5071564;28;20607;-80
2022/11/07 11:51:06;;;;;;;7.20;1.93;;;;;;;13.18;100.00;98919.34;5073607;28;20226;-80
2022/11/07 11:53:36;;;;;;;2.50;1.70;;;;;;;13.20;100.00;98914.75;5073872;28;20192;-80
2022/11/07 11:56:29;;;;;;;7.00;1.70;;;;;;;13.04;100.00;98911.59;5071770;28;20266;-80
2022/11/07 11:59:18;;;;;;;5.83;1.80;;;;;;;13.02;100.00;98910.84;5073320;28;20204;-80